Lebanon, Kansas
Current Conditions -  °F | °C
As of 8:55 AM on Thursday 23 Oct 2014 (Local Time) from KCNK Reporting Station
Haze Haze  
Wind Chill: 61°   Ceiling: 1700
Heat Index: 61°   Visibility: 5mi
Dew Point: 60°   Wind: 0mph
Humidity: 97%   Direction: NA
Pressure: 30.08"   Gusts: NA
Location:  39.81°N, 98.56°W
Report Text: KCNK 231355Z AUTO 00000KT 5SM BR OVC017 16/16 A3008 RMK AO2 SLP179 T01610156
Loading
Personal Weather Stations






























Interactive Weather Map New forecast layout! Learn more

10-Day Weather Forecast

Advertisements
Track Severe Weather on mobile